sensor_id;sensor_type;location;lat;lon;timestamp;temperature;humidity
23069;DHT22;11702;50.856;4.348;2023-04-02T06:45:23;6.20;99.90
23069;DHT22;11702;50.856;4.348;2023-04-02T06:47:51;6.20;99.90
23069;DHT22;11702;50.856;4.348;2023-04-02T06:50:29;6.20;99.90
23069;DHT22;11702;50.856;4.348;2023-04-02T06:53:01;6.20;99.90
23069;DHT22;11702;50.856;4.348;2023-04-02T06:55:50;6.10;99.90
23069;DHT22;11702;50.856;4.348;2023-04-02T06:58:17;6.10;99.90
23069;DHT22;11702;50.856;4.348;2023-04-02T07:00:46;6.30;99.90
23069;DHT22;11702;50.856;4.348;2023-04-02T07:03:30;6.40;99.90
23069;DHT22;11702;50.856;4.348;2023-04-02T07:05:58;6.30;99.90
23069;DHT22;11702;50.856;4.348;2023-04-02T07:08:24;6.20;99.90
23069;DHT22;11702;50.856;4.348;2023-04-02T07:10:50;6.10;99.90
23069;DHT22;11702;50.856;4.348;2023-04-02T07:13:19;6.30;99.90
23069;DHT22;11702;50.856;4.348;2023-04-02T07:15:50;6.30;99.90
23069;DHT22;11702;50.856;4.348;2023-04-02T07:18:29;6.30;99.90
23069;DHT22;11702;50.856;4.348;2023-04-02T07:20:57;6.40;99.90
23069;DHT22;11702;50.856;4.348;2023-04-02T07:23:23;6.30;99.90
23069;DHT22;11702;50.856;4.348;2023-04-02T07:25:53;6.20;99.90
23069;DHT22;11702;50.856;4.348;2023-04-02T07:28:19;6.30;99.90
23069;DHT22;11702;50.856;4.348;2023-04-02T07:30:45;6.20;99.90
23069;DHT22;11702;50.856;4.348;2023-04-02T07:33:16;6.20;99.90
23069;DHT22;11702;50.856;4.348;2023-04-02T07:35:42;6.20;99.90
23069;DHT22;11702;50.856;4.348;2023-04-02T07:38:08;6.20;99.90
23069;DHT22;11702;50.856;4.348;2023-04-02T07:40:33;6.20;99.90
23069;DHT22;11702;50.856;4.348;2023-04-02T07:42:59;6.10;99.90
23069;DHT22;11702;50.856;4.348;2023-04-02T07:45:25;6.10;99.90
23069;DHT22;11702;50.856;4.348;2023-04-02T07:47:51;6.10;99.90
23069;DHT22;11702;50.856;4.348;2023-04-02T07:50:16;6.10;99.90
23069;DHT22;11702;50.856;4.348;2023-04-02T07:52:43;6.10;99.90
23069;DHT22;11702;50.856;4.348;2023-04-02T07:55:09;6.00;99.90
23069;DHT22;11702;50.856;4.348;2023-04-02T07:57:50;6.10;99.90
23069;DHT22;11702;50.856;4.348;2023-04-02T08:00:17;6.10;99.90
23069;DHT22;11702;50.856;4.348;2023-04-02T08:02:43;6.20;99.90
23069;DHT22;11702;50.856;4.348;2023-04-02T08:05:09;6.20;99.90
23069;DHT22;11702;50.856;4.348;2023-04-02T08:07:35;6.00;99.90
23069;DHT22;11702;50.856;4.348;2023-04-02T08:10:02;6.10;99.90
23069;DHT22;11702;50.856;4.348;2023-04-02T08:12:28;6.10;99.90
23069;DHT22;11702;50.856;4.348;2023-04-02T08:14:55;6.00;99.90
23069;DHT22;11702;50.856;4.348;2023-04-02T08:17:21;5.90;99.90
23069;DHT22;11702;50.856;4.348;2023-04-02T08:19:47;5.90;99.90
23069;DHT22;11702;50.856;4.348;2023-04-02T08:22:13;6.00;99.90
23069;DHT22;11702;50.856;4.348;2023-04-02T08:24:39;6.00;99.90
23069;DHT22;11702;50.856;4.348;2023-04-02T08:27:04;6.00;99.90
23069;DHT22;11702;50.856;4.348;2023-04-02T08:29:30;6.00;99.90
23069;DHT22;11702;50.856;4.348;2023-04-02T08:31:59;6.00;99.90
23069;DHT22;11702;50.856;4.348;2023-04-02T08:34:25;5.90;99.90
23069;DHT22;11702;50.856;4.348;2023-04-02T08:36:55;5.90;99.90
23069;DHT22;11702;50.856;4.348;2023-04-02T08:39:22;6.10;99.90
23069;DHT22;11702;50.856;4.348;2023-04-02T08:41:54;6.10;99.90
23069;DHT22;11702;50.856;4.348;2023-04-02T08:47:01;6.10;99.90
23069;DHT22;11702;50.856;4.348;2023-04-02T08:49:42;6.10;99.90
23069;DHT22;11702;50.856;4.348;2023-04-02T08:52:22;6.00;99.90
23069;DHT22;11702;50.856;4.348;2023-04-02T08:54:49;6.10;99.90
23069;DHT22;11702;50.856;4.348;2023-04-02T08:59:57;6.20;99.90
23069;DHT22;11702;50.856;4.348;2023-04-02T09:02:39;6.40;99.90
23069;DHT22;11702;50.856;4.348;2023-04-02T09:05:08;6.30;99.90
23069;DHT22;11702;50.856;4.348;2023-04-02T09:07:39;6.30;99.90
23069;DHT22;11702;50.856;4.348;2023-04-02T09:10:14;6.20;99.90
23069;DHT22;11702;50.856;4.348;2023-04-02T09:12:42;6.10;99.90
23069;DHT22;11702;50.856;4.348;2023-04-02T09:15:28;6.00;99.90
23069;DHT22;11702;50.856;4.348;2023-04-02T09:18:15;6.00;99.90
23069;DHT22;11702;50.856;4.348;2023-04-02T09:20:42;6.00;99.90
23069;DHT22;11702;50.856;4.348;2023-04-02T09:23:16;6.00;99.90
23069;DHT22;11702;50.856;4.348;2023-04-02T09:25:46;6.00;99.90
23069;DHT22;11702;50.856;4.348;2023-04-02T09:28:13;6.10;99.90
23069;DHT22;11702;50.856;4.348;2023-04-02T09:33:44;6.00;99.90
23069;DHT22;11702;50.856;4.348;2023-04-02T09:36:37;6.10;99.90
23069;DHT22;11702;50.856;4.348;2023-04-02T09:39:21;6.20;99.90
23069;DHT22;11702;50.856;4.348;2023-04-02T09:41:48;6.30;99.90
23069;DHT22;11702;50.856;4.348;2023-04-02T09:44:24;6.30;99.90
23069;DHT22;11702;50.856;4.348;2023-04-02T09:46:56;6.20;99.90
23069;DHT22;11702;50.856;4.348;2023-04-02T09:49:35;6.10;99.90
23069;DHT22;11702;50.856;4.348;2023-04-02T09:52:28;6.20;99.90
23069;DHT22;11702;50.856;4.348;2023-04-02T09:55:17;6.20;99.90
23069;DHT22;11702;50.856;4.348;2023-04-02T09:57:44;6.20;99.90
23069;DHT22;11702;50.856;4.348;2023-04-02T10:00:18;6.00;99.90
23069;DHT22;11702;50.856;4.348;2023-04-02T10:03:20;6.10;99.90
23069;DHT22;11702;50.856;4.348;2023-04-02T10:05:45;6.00;99.90
23069;DHT22;11702;50.856;4.348;2023-04-02T10:08:21;6.20;99.90
23069;DHT22;11702;50.856;4.348;2023-04-02T10:10:51;6.00;99.90
23069;DHT22;11702;50.856;4.348;2023-04-02T10:16:16;6.20;99.90
23069;DHT22;11702;50.856;4.348;2023-04-02T10:21:31;6.10;99.90
23069;DHT22;11702;50.856;4.348;2023-04-02T10:23:58;6.20;99.90
23069;DHT22;11702;50.856;4.348;2023-04-02T10:29:23;6.40;99.90
23069;DHT22;11702;50.856;4.348;2023-04-02T10:32:21;6.50;99.90
23069;DHT22;11702;50.856;4.348;2023-04-02T10:35:02;6.40;99.90
23069;DHT22;11702;50.856;4.348;2023-04-02T10:37:42;6.70;99.90
23069;DHT22;11702;50.856;4.348;2023-04-02T10:43:29;6.60;99.90
23069;DHT22;11702;50.856;4.348;2023-04-02T10:46:03;6.70;99.90
23069;DHT22;11702;50.856;4.348;2023-04-02T10:51:32;6.80;99.90
23069;DHT22;11702;50.856;4.348;2023-04-02T10:54:06;6.80;99.90
23069;DHT22;11702;50.856;4.348;2023-04-02T10:56:38;7.00;99.90
23069;DHT22;11702;50.856;4.348;2023-04-02T10:59:12;7.20;99.90
23069;DHT22;11702;50.856;4.348;2023-04-02T11:01:42;7.30;99.90
23069;DHT22;11702;50.856;4.348;2023-04-02T11:04:26;7.20;99.90
23069;DHT22;11702;50.856;4.348;2023-04-02T11:07:03;7.10;99.90
23069;DHT22;11702;50.856;4.348;2023-04-02T11:09:38;7.10;99.90
23069;DHT22;11702;50.856;4.348;2023-04-02T11:12:06;7.30;99.90
23069;DHT22;11702;50.856;4.348;2023-04-02T11:14:33;7.50;99.90
23069;DHT22;11702;50.856;4.348;2023-04-02T11:16:59;7.80;99.90
23069;DHT22;11702;50.856;4.348;2023-04-02T11:19:28;7.70;99.90
23069;DHT22;11702;50.856;4.348;2023-04-02T11:24:45;7.70;99.90
23069;DHT22;11702;50.856;4.348;2023-04-02T11:30:30;7.70;99.90
23069;DHT22;11702;50.856;4.348;2023-04-02T11:32:39;7.50;99.90
23069;DHT22;11702;50.856;4.348;2023-04-02T11:35:24;7.50;99.90
23069;DHT22;11702;50.856;4.348;2023-04-02T11:37:52;7.60;99.90
23069;DHT22;11702;50.856;4.348;2023-04-02T11:46:02;7.30;99.90
23069;DHT22;11702;50.856;4.348;2023-04-02T11:48:33;7.30;99.90
23069;DHT22;11702;50.856;4.348;2023-04-02T11:53:44;7.50;99.90
23069;DHT22;11702;50.856;4.348;2023-04-02T11:59:16;7.40;99.90
23069;DHT22;11702;50.856;4.348;2023-04-02T12:10:58;7.60;99.90
23069;DHT22;11702;50.856;4.348;2023-04-02T12:16:12;8.00;99.90
23069;DHT22;11702;50.856;4.348;2023-04-02T12:18:47;8.20;99.90
23069;DHT22;11702;50.856;4.348;2023-04-02T12:21:17;8.20;99.90
23069;DHT22;11702;50.856;4.348;2023-04-02T12:23:45;7.80;99.90
23069;DHT22;11702;50.856;4.348;2023-04-02T12:26:33;7.90;99.90
23069;DHT22;11702;50.856;4.348;2023-04-02T12:31:45;7.90;99.90
23069;DHT22;11702;50.856;4.348;2023-04-02T12:34:17;8.10;99.90
23069;DHT22;11702;50.856;4.348;2023-04-02T12:36:57;7.80;99.90
23069;DHT22;11702;50.856;4.348;2023-04-02T12:39:31;7.90;99.90
23069;DHT22;11702;50.856;4.348;2023-04-02T12:41:57;8.10;99.90
23069;DHT22;11702;50.856;4.348;2023-04-02T12:44:27;8.00;99.90
23069;DHT22;11702;50.856;4.348;2023-04-02T12:46:54;7.80;99.90
23069;DHT22;11702;50.856;4.348;2023-04-02T12:49:36;7.70;99.90
23069;DHT22;11702;50.856;4.348;2023-04-02T12:52:08;7.70;99.90
23069;DHT22;11702;50.856;4.348;2023-04-02T12:54:42;7.50;99.90
23069;DHT22;11702;50.856;4.348;2023-04-02T12:57:29;7.70;99.90
23069;DHT22;11702;50.856;4.348;2023-04-02T12:59:57;7.80;99.90
23069;DHT22;11702;50.856;4.348;2023-04-02T13:02:29;7.80;99.90
23069;DHT22;11702;50.856;4.348;2023-04-02T13:04:58;7.40;99.90
23069;DHT22;11702;50.856;4.348;2023-04-02T13:07:30;7.30;99.90
23069;DHT22;11702;50.856;4.348;2023-04-02T13:10:17;7.60;99.90
23069;DHT22;11702;50.856;4.348;2023-04-02T13:12:47;7.40;99.90
23069;DHT22;11702;50.856;4.348;2023-04-02T13:15:22;7.30;99.90
23069;DHT22;11702;50.856;4.348;2023-04-02T13:18:17;7.30;99.90
23069;DHT22;11702;50.856;4.348;2023-04-02T13:20:59;7.20;99.90
23069;DHT22;11702;50.856;4.348;2023-04-02T13:25:54;7.40;99.90
23069;DHT22;11702;50.856;4.348;2023-04-02T13:28:20;7.40;99.90
23069;DHT22;11702;50.856;4.348;2023-04-02T13:30:47;7.50;99.90
23069;DHT22;11702;50.856;4.348;2023-04-02T13:33:13;7.60;99.90
23069;DHT22;11702;50.856;4.348;2023-04-02T13:35:40;7.70;99.90
23069;DHT22;11702;50.856;4.348;2023-04-02T13:38:05;7.80;99.90
23069;DHT22;11702;50.856;4.348;2023-04-02T13:40:32;7.80;99.90
23069;DHT22;11702;50.856;4.348;2023-04-02T13:42:58;7.70;99.90
23069;DHT22;11702;50.856;4.348;2023-04-02T13:45:26;7.70;99.90
23069;DHT22;11702;50.856;4.348;2023-04-02T13:47:53;7.50;99.90
23069;DHT22;11702;50.856;4.348;2023-04-02T13:50:22;7.40;99.90
23069;DHT22;11702;50.856;4.348;2023-04-02T13:52:51;7.50;99.90
23069;DHT22;11702;50.856;4.348;2023-04-02T13:55:19;7.50;99.90
23069;DHT22;11702;50.856;4.348;2023-04-02T13:57:45;7.50;99.90
23069;DHT22;11702;50.856;4.348;2023-04-02T14:00:11;7.30;99.90
23069;DHT22;11702;50.856;4.348;2023-04-02T14:02:44;7.40;99.90
23069;DHT22;11702;50.856;4.348;2023-04-02T14:05:46;7.60;99.90
23069;DHT22;11702;50.856;4.348;2023-04-02T14:14:07;7.70;99.90
23069;DHT22;11702;50.856;4.348;2023-04-02T14:19:45;7.60;99.90
23069;DHT22;11702;50.856;4.348;2023-04-02T14:28:20;7.50;99.90
23069;DHT22;11702;50.856;4.348;2023-04-02T14:34:02;7.50;99.90
23069;DHT22;11702;50.856;4.348;2023-04-02T14:36:44;7.40;99.90
23069;DHT22;11702;50.856;4.348;2023-04-02T14:44:29;7.40;99.90
23069;DHT22;11702;50.856;4.348;2023-04-02T14:47:09;7.30;99.90
23069;DHT22;11702;50.856;4.348;2023-04-02T14:49:42;7.30;99.90
23069;DHT22;11702;50.856;4.348;2023-04-02T14:52:13;7.30;99.90
23069;DHT22;11702;50.856;4.348;2023-04-02T14:54:54;7.30;99.90
23069;DHT22;11702;50.856;4.348;2023-04-02T14:57:28;7.20;99.90
23069;DHT22;11702;50.856;4.348;2023-04-02T15:05:58;7.40;99.90
23069;DHT22;11702;50.856;4.348;2023-04-02T15:08:29;7.20;99.90
23069;DHT22;11702;50.856;4.348;2023-04-02T15:11:17;7.00;99.90
23069;DHT22;11702;50.856;4.348;2023-04-02T15:13:49;7.00;99.90
23069;DHT22;11702;50.856;4.348;2023-04-02T15:16:21;6.90;99.90
23069;DHT22;11702;50.856;4.348;2023-04-02T15:18:59;6.90;99.90
23069;DHT22;11702;50.856;4.348;2023-04-02T15:24:23;7.00;99.90
23069;DHT22;11702;50.856;4.348;2023-04-02T15:29:50;6.90;99.90
23069;DHT22;11702;50.856;4.348;2023-04-02T15:37:55;6.90;99.90
23069;DHT22;11702;50.856;4.348;2023-04-02T15:40:37;7.00;99.90
23069;DHT22;11702;50.856;4.348;2023-04-02T15:43:05;7.10;99.90
23069;DHT22;11702;50.856;4.348;2023-04-02T15:56:45;7.30;99.90
23069;DHT22;11702;50.856;4.348;2023-04-02T16:02:01;7.40;99.90
23069;DHT22;11702;50.856;4.348;2023-04-02T16:10:05;7.40;99.90
23069;DHT22;11702;50.856;4.348;2023-04-02T16:12:33;7.30;99.90
23069;DHT22;11702;50.856;4.348;2023-04-02T16:15:26;7.20;99.90
23069;DHT22;11702;50.856;4.348;2023-04-02T16:18:02;7.20;99.90
23069;DHT22;11702;50.856;4.348;2023-04-02T16:20:41;7.10;99.90
23069;DHT22;11702;50.856;4.348;2023-04-02T16:23:15;7.10;99.90
23069;DHT22;11702;50.856;4.348;2023-04-02T16:31:12;7.00;99.90
23069;DHT22;11702;50.856;4.348;2023-04-02T16:39:02;7.00;99.90
23069;DHT22;11702;50.856;4.348;2023-04-02T16:49:36;7.00;99.90
23069;DHT22;11702;50.856;4.348;2023-04-02T17:00:23;6.80;99.90
23069;DHT22;11702;50.856;4.348;2023-04-02T17:03:35;6.90;99.90
23069;DHT22;11702;50.856;4.348;2023-04-02T17:06:12;7.10;99.90
23069;DHT22;11702;50.856;4.348;2023-04-02T17:09:07;7.20;99.90
23069;DHT22;11702;50.856;4.348;2023-04-02T17:14:23;7.10;99.90
23069;DHT22;11702;50.856;4.348;2023-04-02T17:16:55;7.10;99.90
23069;DHT22;11702;50.856;4.348;2023-04-02T17:19:25;6.90;99.90
23069;DHT22;11702;50.856;4.348;2023-04-02T17:21:58;6.90;99.90
23069;DHT22;11702;50.856;4.348;2023-04-02T17:26:58;6.60;99.90
23069;DHT22;11702;50.856;4.348;2023-04-02T17:29:40;6.50;99.90
23069;DHT22;11702;50.856;4.348;2023-04-02T17:32:15;6.60;99.90
23069;DHT22;11702;50.856;4.348;2023-04-02T17:34:42;6.50;99.90
23069;DHT22;11702;50.856;4.348;2023-04-02T17:37:21;6.70;99.90
23069;DHT22;11702;50.856;4.348;2023-04-02T17:45:41;6.60;99.90
23069;DHT22;11702;50.856;4.348;2023-04-02T17:54:00;6.50;99.90
23069;DHT22;11702;50.856;4.348;2023-04-02T17:56:55;6.60;99.90
23069;DHT22;11702;50.856;4.348;2023-04-02T18:12:55;6.10;99.90
23069;DHT22;11702;50.856;4.348;2023-04-02T18:18:48;6.00;99.90
23069;DHT22;11702;50.856;4.348;2023-04-02T18:24:19;6.00;99.90
23069;DHT22;11702;50.856;4.348;2023-04-02T18:26:57;6.10;99.90
23069;DHT22;11702;50.856;4.348;2023-04-02T18:29:33;6.10;99.90
23069;DHT22;11702;50.856;4.348;2023-04-02T18:34:55;6.00;99.90
23069;DHT22;11702;50.856;4.348;2023-04-02T18:37:37;6.10;99.90
23069;DHT22;11702;50.856;4.348;2023-04-02T18:45:58;5.90;99.90
23069;DHT22;11702;50.856;4.348;2023-04-02T18:48:45;5.90;99.90
23069;DHT22;11702;50.856;4.348;2023-04-02T18:51:19;5.90;99.90
23069;DHT22;11702;50.856;4.348;2023-04-02T18:53:48;6.00;99.90
23069;DHT22;11702;50.856;4.348;2023-04-02T18:56:17;5.90;99.90
23069;DHT22;11702;50.856;4.348;2023-04-02T19:01:17;5.90;99.90
23069;DHT22;11702;50.856;4.348;2023-04-02T19:03:50;5.90;99.90
23069;DHT22;11702;50.856;4.348;2023-04-02T19:06:24;5.90;99.90
23069;DHT22;11702;50.856;4.348;2023-04-02T19:09:03;5.90;99.90
23069;DHT22;11702;50.856;4.348;2023-04-02T19:11:32;5.90;99.90
23069;DHT22;11702;50.856;4.348;2023-04-02T19:14:00;5.90;99.90
23069;DHT22;11702;50.856;4.348;2023-04-02T19:19:29;5.80;99.90
23069;DHT22;11702;50.856;4.348;2023-04-02T19:35:54;6.10;99.90
23069;DHT22;11702;50.856;4.348;2023-04-02T19:43:59;6.20;99.90
23069;DHT22;11702;50.856;4.348;2023-04-02T19:46:26;6.20;99.90
23069;DHT22;11702;50.856;4.348;2023-04-02T19:49:10;6.30;99.90
23069;DHT22;11702;50.856;4.348;2023-04-02T19:51:36;6.40;99.90
23069;DHT22;11702;50.856;4.348;2023-04-02T19:54:02;6.60;99.90
23069;DHT22;11702;50.856;4.348;2023-04-02T19:56:28;6.50;99.90
23069;DHT22;11702;50.856;4.348;2023-04-02T19:58:54;6.40;99.90
23069;DHT22;11702;50.856;4.348;2023-04-02T20:01:19;6.40;99.90
23069;DHT22;11702;50.856;4.348;2023-04-02T20:03:45;6.40;99.90
23069;DHT22;11702;50.856;4.348;2023-04-02T20:06:11;6.40;99.90
23069;DHT22;11702;50.856;4.348;2023-04-02T20:08:37;6.40;99.90
23069;DHT22;11702;50.856;4.348;2023-04-02T20:11:03;6.30;99.90
23069;DHT22;11702;50.856;4.348;2023-04-02T20:13:29;6.30;99.90
23069;DHT22;11702;50.856;4.348;2023-04-02T20:16:03;6.30;99.90
23069;DHT22;11702;50.856;4.348;2023-04-02T20:18:30;6.20;99.90
23069;DHT22;11702;50.856;4.348;2023-04-02T20:20:56;6.30;99.90
23069;DHT22;11702;50.856;4.348;2023-04-02T20:23:23;6.30;99.90
23069;DHT22;11702;50.856;4.348;2023-04-02T20:25:51;6.30;99.90
23069;DHT22;11702;50.856;4.348;2023-04-02T20:28:19;6.20;99.90
23069;DHT22;11702;50.856;4.348;2023-04-02T20:30:46;6.20;99.90
23069;DHT22;11702;50.856;4.348;2023-04-02T20:33:15;6.20;99.90
23069;DHT22;11702;50.856;4.348;2023-04-02T20:35:41;6.10;99.90
23069;DHT22;11702;50.856;4.348;2023-04-02T20:38:07;6.00;99.90
23069;DHT22;11702;50.856;4.348;2023-04-02T20:40:33;5.90;99.90
23069;DHT22;11702;50.856;4.348;2023-04-02T20:42:59;5.90;99.90
23069;DHT22;11702;50.856;4.348;2023-04-02T20:45:24;5.90;99.90
23069;DHT22;11702;50.856;4.348;2023-04-02T20:47:53;6.00;99.90
23069;DHT22;11702;50.856;4.348;2023-04-02T20:50:22;6.00;99.90
23069;DHT22;11702;50.856;4.348;2023-04-02T20:52:48;5.90;99.90
23069;DHT22;11702;50.856;4.348;2023-04-02T20:55:16;5.90;99.90
23069;DHT22;11702;50.856;4.348;2023-04-02T20:57:42;5.90;99.90
23069;DHT22;11702;50.856;4.348;2023-04-02T21:00:11;5.80;99.90
23069;DHT22;11702;50.856;4.348;2023-04-02T21:02:37;5.80;99.90
23069;DHT22;11702;50.856;4.348;2023-04-02T21:05:03;5.70;99.90
23069;DHT22;11702;50.856;4.348;2023-04-02T21:07:29;5.60;99.90
23069;DHT22;11702;50.856;4.348;2023-04-02T21:09:56;5.60;99.90
23069;DHT22;11702;50.856;4.348;2023-04-02T21:12:22;5.50;99.90
23069;DHT22;11702;50.856;4.348;2023-04-02T21:14:49;5.40;99.90
23069;DHT22;11702;50.856;4.348;2023-04-02T21:17:21;5.40;99.90
23069;DHT22;11702;50.856;4.348;2023-04-02T21:19:46;5.30;99.90
23069;DHT22;11702;50.856;4.348;2023-04-02T21:22:12;5.20;99.90
23069;DHT22;11702;50.856;4.348;2023-04-02T21:24:38;5.20;99.90
23069;DHT22;11702;50.856;4.348;2023-04-02T21:27:03;5.20;99.90
23069;DHT22;11702;50.856;4.348;2023-04-02T21:29:29;5.20;99.90
23069;DHT22;11702;50.856;4.348;2023-04-02T21:31:55;5.20;99.90
23069;DHT22;11702;50.856;4.348;2023-04-02T21:34:20;5.10;99.90
23069;DHT22;11702;50.856;4.348;2023-04-02T21:36:47;5.10;99.90
23069;DHT22;11702;50.856;4.348;2023-04-02T21:39:20;5.20;99.90
23069;DHT22;11702;50.856;4.348;2023-04-02T21:41:47;5.10;99.90
23069;DHT22;11702;50.856;4.348;2023-04-02T21:44:18;5.10;99.90
23069;DHT22;11702;50.856;4.348;2023-04-02T21:46:45;5.10;99.90
23069;DHT22;11702;50.856;4.348;2023-04-02T21:49:14;5.00;99.90
23069;DHT22;11702;50.856;4.348;2023-04-02T21:51:40;5.00;99.90
23069;DHT22;11702;50.856;4.348;2023-04-02T21:54:06;4.80;99.90
23069;DHT22;11702;50.856;4.348;2023-04-02T21:56:35;4.80;99.90
23069;DHT22;11702;50.856;4.348;2023-04-02T21:59:02;4.90;99.90
23069;DHT22;11702;50.856;4.348;2023-04-02T22:01:30;4.80;99.90
23069;DHT22;11702;50.856;4.348;2023-04-02T22:03:59;4.80;99.90
23069;DHT22;11702;50.856;4.348;2023-04-02T22:06:27;4.80;99.90
23069;DHT22;11702;50.856;4.348;2023-04-02T22:09:01;4.70;99.90
23069;DHT22;11702;50.856;4.348;2023-04-02T22:11:29;4.70;99.90
23069;DHT22;11702;50.856;4.348;2023-04-02T22:13:55;4.60;99.90
23069;DHT22;11702;50.856;4.348;2023-04-02T22:16:26;4.60;99.90
23069;DHT22;11702;50.856;4.348;2023-04-02T22:18:53;4.50;99.90
23069;DHT22;11702;50.856;4.348;2023-04-02T22:21:20;4.50;99.90
23069;DHT22;11702;50.856;4.348;2023-04-02T22:23:47;4.50;99.90
23069;DHT22;11702;50.856;4.348;2023-04-02T22:26:14;4.50;99.90
23069;DHT22;11702;50.856;4.348;2023-04-02T22:28:41;4.50;99.90
23069;DHT22;11702;50.856;4.348;2023-04-02T22:31:10;4.40;99.90
23069;DHT22;11702;50.856;4.348;2023-04-02T22:33:36;4.40;99.90
